Time;durP1;ratioP1;P1;durP2;ratioP2;P2;SDS_P1;SDS_P2;PMS_P1;PMS_P2;Temp;Humidity;BMP_temperature;BMP_pressure;BME280_temperature;BME280_humidity;BME280_pressure;Samples;Min_cycle;Max_cycle;Signal;HPM_P1;HPM_P2
2022/06/25 00:01:57;;;;;;;8.30;7.47;;;;;;;19.62;65.71;99761.75;10121915;29;20103;-78
2022/06/25 00:07:01;;;;;;;9.55;8.15;;;;;;;19.71;65.26;99770.59;10136303;29;20076;-78
2022/06/25 00:17:35;;;;;;;8.60;7.68;;;;;;;19.52;65.53;99774.84;10095113;29;20768;-78
2022/06/25 00:22:38;;;;;;;9.05;8.25;;;;;;;19.68;65.10;99772.69;10117841;29;21198;-78
2022/06/25 00:27:41;;;;;;;8.75;7.88;;;;;;;19.60;65.37;99780.16;10116337;29;20150;-78
2022/06/25 00:32:46;;;;;;;9.77;8.98;;;;;;;19.48;65.66;99788.00;10116639;29;20067;-79
2022/06/25 00:37:49;;;;;;;9.73;8.73;;;;;;;19.41;65.88;99798.84;10131589;29;20505;-79
2022/06/25 00:42:51;;;;;;;9.02;8.23;;;;;;;19.33;65.99;99806.31;10118013;29;20528;-77
2022/06/25 00:47:56;;;;;;;8.23;7.53;;;;;;;19.18;66.50;99812.66;10134105;29;21643;-79
2022/06/25 00:53:02;;;;;;;8.25;7.45;;;;;;;19.17;66.44;99821.88;10138367;29;20203;-77
2022/06/25 00:58:10;;;;;;;8.77;6.90;;;;;;;19.20;66.06;99826.94;10116073;29;20179;-79
2022/06/25 01:03:15;;;;;;;6.75;6.05;;;;;;;19.29;65.43;99838.53;10133551;29;20055;-78
2022/06/25 01:08:18;;;;;;;6.10;5.50;;;;;;;19.30;65.04;99845.66;10123483;29;20067;-77
2022/06/25 01:13:22;;;;;;;7.72;4.95;;;;;;;19.33;64.87;99852.59;10124924;29;20096;-80
2022/06/25 01:18:26;;;;;;;5.95;4.85;;;;;;;19.30;64.70;99851.09;10124528;29;20518;-80
2022/06/25 01:23:31;;;;;;;5.47;4.97;;;;;;;19.29;64.74;99846.69;10141641;29;21190;-78
2022/06/25 01:28:34;;;;;;;6.13;5.45;;;;;;;19.24;65.07;99851.88;10122806;29;20056;-78
2022/06/25 01:33:37;;;;;;;5.63;5.10;;;;;;;19.28;65.50;99857.78;10140001;29;20054;-79
2022/06/25 01:38:45;;;;;;;6.75;5.60;;;;;;;19.32;65.53;99875.44;10122659;29;20040;-78
2022/06/25 01:43:48;;;;;;;8.38;7.60;;;;;;;19.34;65.39;99868.75;10139956;29;21687;-77
2022/06/25 01:48:51;;;;;;;7.53;6.90;;;;;;;19.24;65.41;99871.78;10138338;29;20055;-77
2022/06/25 01:53:57;;;;;;;10.07;6.90;;;;;;;19.19;65.80;99868.78;10139659;29;21793;-77
2022/06/25 01:59:00;;;;;;;10.10;6.93;;;;;;;19.21;65.76;99863.16;10121424;29;20059;-78
2022/06/25 02:04:04;;;;;;;7.03;6.40;;;;;;;19.13;66.00;99869.56;10121368;29;20533;-78
2022/06/25 02:09:08;;;;;;;7.60;6.90;;;;;;;18.98;66.36;99872.34;10138389;29;20123;-78
2022/06/25 02:14:11;;;;;;;7.63;6.00;;;;;;;18.90;66.79;99872.47;10121944;29;20052;-78
2022/06/25 02:19:14;;;;;;;7.93;6.70;;;;;;;18.80;66.71;99874.63;10137952;29;20164;-77
2022/06/25 02:24:18;;;;;;;7.47;6.78;;;;;;;18.81;67.00;99873.59;10137288;29;20052;-79
2022/06/25 02:29:21;;;;;;;6.78;6.18;;;;;;;18.73;66.93;99874.53;10138840;29;20060;-79
2022/06/25 02:34:24;;;;;;;9.80;5.75;;;;;;;18.65;67.12;99874.63;10137441;29;20426;-78
2022/06/25 02:39:28;;;;;;;8.02;7.00;;;;;;;18.66;67.19;99879.03;10136019;29;20070;-78
2022/06/25 02:44:31;;;;;;;8.02;7.18;;;;;;;18.51;67.49;99892.66;10121982;29;20131;-79
2022/06/25 02:49:35;;;;;;;10.63;7.03;;;;;;;18.34;67.63;99891.97;10128262;29;20064;-79
2022/06/25 02:54:41;;;;;;;8.73;6.70;;;;;;;18.25;68.04;99901.25;10123393;29;20052;-79
2022/06/25 02:59:45;;;;;;;8.70;6.30;;;;;;;18.27;68.19;99903.81;10119791;29;20050;-78
2022/06/25 03:04:48;;;;;;;7.45;6.05;;;;;;;18.21;68.24;99904.53;10119745;29;20040;-78
2022/06/25 03:09:53;;;;;;;6.55;5.95;;;;;;;18.18;68.50;99913.88;10118935;29;20050;-78
2022/06/25 03:14:56;;;;;;;9.55;4.35;;;;;;;18.12;68.87;99930.94;10118735;29;20060;-78
2022/06/25 03:19:59;;;;;;;6.18;4.30;;;;;;;18.16;69.09;99945.88;10118683;29;21227;-77
2022/06/25 03:25:13;;;;;;;5.72;3.55;;;;;;;18.21;68.54;99946.16;10134216;29;20469;-77
2022/06/25 03:30:16;;;;;;;4.45;3.58;;;;;;;18.23;68.38;99948.69;10118475;29;20509;-76
2022/06/25 03:35:20;;;;;;;4.90;3.45;;;;;;;18.22;67.92;99958.72;10118061;29;20052;-78
2022/06/25 03:41:32;;;;;;;4.13;2.90;;;;;;;17.99;68.49;99960.63;10132827;29;20059;-76
2022/06/25 03:46:15;;;;;;;3.10;2.70;;;;;;;;;;10116436;29;20076;-77
2022/06/25 03:51:19;;;;;;;3.40;3.10;;;;;;;18.02;68.19;99968.41;10118704;29;20577;-77
2022/06/25 03:56:24;;;;;;;3.33;2.80;;;;;;;18.19;67.59;99969.97;10136026;29;20080;-77
2022/06/25 04:01:27;;;;;;;2.90;2.70;;;;;;;18.23;67.44;99981.31;10106002;29;20052;-79
2022/06/25 04:06:31;;;;;;;3.83;2.78;;;;;;;18.13;67.90;99985.13;10115782;29;20052;-78
2022/06/25 04:11:39;;;;;;;3.78;3.15;;;;;;;18.19;67.68;99991.72;10116693;29;20095;-78
2022/06/25 04:16:42;;;;;;;3.90;2.63;;;;;;;18.24;67.62;99991.13;10117171;29;20047;-76
2022/06/25 04:21:50;;;;;;;3.67;2.55;;;;;;;18.24;67.77;99991.13;10117794;29;21224;-77
2022/06/25 04:26:55;;;;;;;2.80;2.60;;;;;;;18.22;68.19;100006.81;10118703;29;20063;-78
2022/06/25 04:31:58;;;;;;;4.72;3.00;;;;;;;18.29;68.27;100000.47;10116770;29;20063;-75
2022/06/25 04:37:22;;;;;;;3.85;3.50;;;;;;;18.39;67.69;100007.50;10102748;29;20050;-79
2022/06/25 04:42:26;;;;;;;4.63;3.13;;;;;;;18.21;68.37;100013.25;10128756;29;20067;-77
2022/06/25 04:47:30;;;;;;;5.20;2.90;;;;;;;18.38;68.24;100011.25;10126268;29;20536;-79
2022/06/25 04:52:52;;;;;;;3.78;3.10;;;;;;;18.41;68.23;100016.31;10125385;29;20052;-78
2022/06/25 04:57:56;;;;;;;5.32;3.25;;;;;;;18.47;67.97;100015.56;10123293;29;21186;-76
2022/06/25 05:03:14;;;;;;;3.50;3.20;;;;;;;18.55;68.07;100026.38;10138027;29;21579;-78
2022/06/25 05:08:37;;;;;;;6.40;3.40;;;;;;;18.60;67.53;100023.94;10123425;29;20541;-77
2022/06/25 05:13:42;;;;;;;3.40;3.10;;;;;;;18.62;67.41;100034.63;10123592;29;20146;-79
2022/06/25 05:18:47;;;;;;;5.78;3.22;;;;;;;18.80;66.85;100037.88;10122905;29;20051;-78
2022/06/25 05:23:50;;;;;;;3.63;3.22;;;;;;;18.95;65.94;100037.88;10123231;29;21139;-79
2022/06/25 05:28:55;;;;;;;3.20;2.90;;;;;;;19.03;66.39;100040.50;10124584;29;20143;-77
2022/06/25 05:34:00;;;;;;;4.75;3.10;;;;;;;18.80;66.45;100035.16;10124270;29;20159;-79
2022/06/25 05:39:02;;;;;;;4.93;3.00;;;;;;;18.94;65.96;100039.75;10121697;29;20052;-77
2022/06/25 05:44:08;;;;;;;4.22;3.22;;;;;;;18.70;67.28;100048.97;10123756;29;20055;-77
2022/06/25 05:49:10;;;;;;;4.82;3.35;;;;;;;18.71;65.84;100052.56;10127129;29;20683;-78
2022/06/25 05:54:13;;;;;;;4.18;3.42;;;;;;;18.83;65.16;100050.25;10146090;29;20407;-76
2022/06/25 05:59:18;;;;;;;3.92;3.13;;;;;;;18.96;66.11;100062.19;10142207;29;20090;-77
2022/06/25 06:04:20;;;;;;;6.55;2.90;;;;;;;19.54;64.51;100059.59;10143576;29;20056;-77
2022/06/25 06:09:23;;;;;;;3.65;2.70;;;;;;;18.97;64.43;100072.03;10144439;29;20477;-76
2022/06/25 06:14:28;;;;;;;3.45;2.90;;;;;;;19.01;64.46;100062.47;10142370;29;20499;-77
2022/06/25 06:19:31;;;;;;;2.95;2.65;;;;;;;19.26;65.08;100066.78;10116985;29;20075;-78
2022/06/25 06:24:34;;;;;;;6.57;3.05;;;;;;;19.22;65.96;100060.88;10136720;29;20140;-77
2022/06/25 06:29:38;;;;;;;3.83;3.25;;;;;;;19.64;63.44;100071.09;10141519;29;20056;-77
2022/06/25 06:34:41;;;;;;;7.70;2.88;;;;;;;19.51;63.31;100087.22;10140184;29;20052;-77
2022/06/25 06:39:44;;;;;;;7.05;3.20;;;;;;;19.38;62.59;100082.44;10128927;29;20060;-77
2022/06/25 06:44:48;;;;;;;3.10;2.75;;;;;;;19.68;62.35;100079.72;10142554;29;20099;-77
2022/06/25 06:49:51;;;;;;;4.28;2.78;;;;;;;19.88;62.78;100083.53;10136152;29;20055;-77
2022/06/25 06:54:54;;;;;;;3.67;2.70;;;;;;;19.98;61.48;100080.47;10139549;29;20155;-77
2022/06/25 06:59:59;;;;;;;5.15;2.83;;;;;;;20.39;60.65;100085.31;10140160;29;20175;-78
2022/06/25 07:05:02;;;;;;;6.68;2.65;;;;;;;21.16;57.97;100080.88;10131652;29;20115;-78
2022/06/25 07:10:06;;;;;;;2.97;2.03;;;;;;;20.61;57.30;100085.28;10136656;29;20060;-77
2022/06/25 07:15:11;;;;;;;4.30;1.65;;;;;;;20.92;55.47;100087.63;10139480;29;20266;-79
2022/06/25 07:20:13;;;;;;;4.53;1.73;;;;;;;22.23;53.61;100091.19;10134532;29;20506;-80
2022/06/25 07:25:16;;;;;;;2.22;1.88;;;;;;;24.93;47.20;100088.75;10139887;29;20186;-78
2022/06/25 07:30:21;;;;;;;2.40;1.73;;;;;;;26.73;43.06;100080.88;10145296;29;20786;-78
2022/06/25 07:35:24;;;;;;;3.00;1.50;;;;;;;27.88;40.93;100082.06;10127146;29;20052;-79
2022/06/25 07:40:27;;;;;;;6.65;1.85;;;;;;;27.12;41.27;100073.00;10120129;29;20060;-78
2022/06/25 07:45:32;;;;;;;4.00;1.90;;;;;;;26.58;42.05;100073.09;10134117;29;20389;-79
2022/06/25 07:56:01;;;;;;;4.60;1.40;;;;;;;26.08;41.49;100082.53;10135156;29;20056;-80
2022/06/25 08:01:05;;;;;;;1.63;1.48;;;;;;;24.52;45.93;100076.44;10134029;29;20618;-78
2022/06/25 08:06:10;;;;;;;6.32;1.25;;;;;;;23.56;46.99;100069.16;10138906;29;20060;-79
2022/06/25 08:11:13;;;;;;;2.75;1.40;;;;;;;23.59;47.95;100070.63;10135575;29;20052;-80
2022/06/25 08:16:17;;;;;;;1.13;1.00;;;;;;;24.43;46.36;100076.91;10134915;29;20659;-79
2022/06/25 08:21:20;;;;;;;2.67;1.30;;;;;;;23.53;47.44;100066.88;10132466;29;20115;-78
2022/06/25 08:26:23;;;;;;;2.80;1.35;;;;;;;23.69;45.43;100081.97;10115057;29;20108;-79
2022/06/25 08:31:29;;;;;;;2.53;1.25;;;;;;;23.85;45.43;100095.19;10114663;29;20786;-78
2022/06/25 08:36:34;;;;;;;8.15;1.73;;;;;;;24.12;46.50;100075.84;10108079;29;20055;-78
2022/06/25 08:41:37;;;;;;;2.55;1.25;;;;;;;24.78;43.97;100079.16;10140390;29;20495;-76
2022/06/25 08:46:41;;;;;;;1.23;1.13;;;;;;;24.07;45.72;100073.75;10135250;29;20251;-77
2022/06/25 08:51:46;;;;;;;3.85;1.60;;;;;;;24.76;45.40;100073.88;10135277;29;20614;-76
2022/06/25 08:56:49;;;;;;;2.63;1.30;;;;;;;24.39;44.57;100081.16;10116457;29;20514;-76
2022/06/25 09:01:53;;;;;;;3.70;1.40;;;;;;;25.27;43.71;100075.53;11239345;23;20465;-78
2022/06/25 09:07:10;;;;;;;3.60;1.50;;;;;;;25.67;43.61;100071.47;10162355;29;20055;-78
2022/06/25 09:12:14;;;;;;;3.03;1.42;;;;;;;25.62;41.68;100066.66;10178260;29;20048;-78
2022/06/25 09:17:18;;;;;;;2.50;1.55;;;;;;;25.75;40.81;100076.66;10162655;29;20066;-79
2022/06/25 09:22:23;;;;;;;3.13;1.60;;;;;;;25.63;41.31;100076.56;10177773;29;20048;-80
2022/06/25 09:27:36;;;;;;;3.25;1.45;;;;;;;25.56;42.88;100067.53;10183991;29;20155;-79
2022/06/25 09:32:46;;;;;;;2.65;1.17;;;;;;;25.33;42.22;100066.34;10167364;29;20067;-79
2022/06/25 09:37:50;;;;;;;2.67;1.13;;;;;;;25.17;41.55;100072.44;10187289;29;20080;-79
2022/06/25 09:42:53;;;;;;;2.55;1.33;;;;;;;25.68;42.29;100063.00;10168592;29;20430;-79
2022/06/25 09:47:57;;;;;;;2.42;1.30;;;;;;;25.70;42.47;100071.84;10186172;29;20414;-79
2022/06/25 09:53:00;;;;;;;2.90;1.60;;;;;;;27.27;39.28;100065.06;10177690;29;20079;-78
2022/06/25 09:58:05;;;;;;;1.30;0.98;;;;;;;27.35;39.18;100067.47;10177675;29;20442;-77
2022/06/25 10:03:10;;;;;;;1.70;1.23;;;;;;;27.16;39.20;100057.66;10183736;29;20040;-79
2022/06/25 10:08:16;;;;;;;1.85;1.38;;;;;;;26.28;39.16;100078.69;10194419;29;20059;-78
2022/06/25 10:13:19;;;;;;;4.50;1.20;;;;;;;24.93;43.11;100080.50;10192627;29;20048;-79
2022/06/25 10:18:25;;;;;;;1.55;1.20;;;;;;;25.90;39.63;100065.25;10172707;29;20135;-79
2022/06/25 10:23:29;;;;;;;3.00;1.30;;;;;;;26.80;38.27;100056.00;10188817;29;20051;-79
2022/06/25 10:28:34;;;;;;;3.67;1.45;;;;;;;27.35;37.82;100061.94;10189006;29;20048;-78
2022/06/25 10:33:53;;;;;;;1.83;1.25;;;;;;;28.08;36.73;100058.72;10170971;29;20100;-78
2022/06/25 10:38:56;;;;;;;2.17;1.15;;;;;;;26.87;37.84;100052.03;10196023;29;20468;-78
2022/06/25 10:43:59;;;;;;;2.50;1.23;;;;;;;27.74;36.82;100037.38;10175940;29;20051;-78
2022/06/25 10:49:08;;;;;;;3.78;1.35;;;;;;;28.71;36.21;100049.31;10192471;29;20498;-78
2022/06/25 10:54:35;;;;;;;1.23;1.10;;;;;;;29.19;32.97;100047.84;10187925;29;20051;-79
2022/06/25 10:59:46;;;;;;;1.17;1.08;;;;;;;28.01;35.16;100043.16;10185468;29;20166;-79
2022/06/25 11:04:53;;;;;;;1.95;1.00;;;;;;;27.32;37.14;100045.88;10182418;29;20071;-79
2022/06/25 11:09:57;;;;;;;1.45;1.10;;;;;;;26.94;38.41;100033.47;10181643;29;20046;-79
2022/06/25 11:15:02;;;;;;;1.88;1.00;;;;;;;27.23;38.00;100041.81;10184712;29;20158;-79
2022/06/25 11:20:09;;;;;;;1.80;1.10;;;;;;;27.51;36.21;100041.06;10183636;29;20060;-79
2022/06/25 11:30:32;;;;;;;1.30;1.20;;;;;;;26.46;39.43;100041.94;10140601;29;20044;-78
2022/06/25 11:35:42;;;;;;;3.00;1.35;;;;;;;27.83;35.88;100038.66;10129161;29;20135;-78
2022/06/25 11:40:45;;;;;;;2.45;1.30;;;;;;;28.25;35.60;100034.75;10141218;29;20072;-78
2022/06/25 11:45:50;;;;;;;3.13;1.40;;;;;;;27.59;36.33;100045.34;10140656;29;20083;-79
2022/06/25 11:50:55;;;;;;;1.73;1.05;;;;;;;27.71;37.01;100042.56;10139953;29;20056;-79
2022/06/25 11:56:05;;;;;;;2.25;1.20;;;;;;;28.24;36.33;100035.81;10139927;29;20060;-79
2022/06/25 12:01:08;;;;;;;1.92;1.00;;;;;;;29.24;35.90;100036.03;10148740;29;20056;-79
2022/06/25 12:06:12;;;;;;;3.40;1.10;;;;;;;29.82;32.52;100024.25;10155356;29;20052;-80
2022/06/25 12:11:15;;;;;;;2.70;1.20;;;;;;;30.24;33.32;100012.50;10131301;29;20044;-79
2022/06/25 12:16:18;;;;;;;1.38;1.00;;;;;;;30.10;32.66;100016.78;10155105;29;20043;-79
2022/06/25 12:21:22;;;;;;;1.33;1.00;;;;;;;30.01;33.58;100021.13;10149612;29;20112;-79
2022/06/25 12:26:27;;;;;;;1.98;1.00;;;;;;;32.07;31.34;100013.72;10152046;29;20063;-79
2022/06/25 12:31:30;;;;;;;2.47;1.20;;;;;;;33.43;28.87;99995.41;10137563;29;20666;-79
2022/06/25 12:36:39;;;;;;;1.52;1.02;;;;;;;33.28;27.78;100010.25;10137146;29;20117;-79
2022/06/25 12:41:48;;;;;;;2.22;1.20;;;;;;;31.68;29.57;100005.88;10142953;29;20527;-79
2022/06/25 12:47:02;;;;;;;2.25;1.00;;;;;;;32.48;28.88;99999.03;10150828;29;20056;-78
2022/06/25 12:52:07;;;;;;;1.83;1.13;;;;;;;32.56;29.73;100010.41;10137168;29;20056;-78
2022/06/25 12:57:10;;;;;;;2.28;1.30;;;;;;;28.48;33.66;100008.88;10137259;29;20052;-78
2022/06/25 13:02:13;;;;;;;1.52;1.13;;;;;;;32.18;30.35;100001.53;10150741;29;20770;-78
2022/06/25 13:07:17;;;;;;;3.03;1.10;;;;;;;30.85;32.75;100005.75;10146648;29;20055;-78
2022/06/25 13:12:20;;;;;;;2.42;1.38;;;;;;;30.24;31.18;100001.41;10123008;29;20147;-78
2022/06/25 13:17:23;;;;;;;1.92;1.20;;;;;;;30.82;31.33;100001.56;10145809;29;20192;-80
2022/06/25 13:22:27;;;;;;;4.20;1.35;;;;;;;29.73;32.72;99997.31;10151079;29;20090;-79
2022/06/25 13:27:31;;;;;;;4.35;1.10;;;;;;;29.58;33.27;99998.78;10146582;29;20071;-80
2022/06/25 13:32:34;;;;;;;4.68;1.55;;;;;;;29.09;33.55;99993.22;10148720;29;20134;-80
2022/06/25 13:37:39;;;;;;;1.90;1.20;;;;;;;29.08;33.11;100001.78;10139877;29;20076;-79
2022/06/25 13:42:47;;;;;;;2.60;1.33;;;;;;;29.07;33.81;99997.34;10150135;29;20437;-79
2022/06/25 13:47:50;;;;;;;3.90;1.30;;;;;;;28.65;35.66;100000.59;10149594;29;20077;-80
2022/06/25 13:52:54;;;;;;;1.50;1.27;;;;;;;28.08;37.12;99998.00;10147143;29;20063;-80
2022/06/25 13:57:57;;;;;;;3.70;1.50;;;;;;;28.34;36.46;99996.50;10142253;29;20128;-80
2022/06/25 14:03:00;;;;;;;3.03;1.67;;;;;;;28.50;36.69;100006.72;10146450;29;20142;-79
2022/06/25 14:08:05;;;;;;;3.53;1.92;;;;;;;28.53;37.08;99997.13;10148903;29;20532;-79
2022/06/25 14:13:08;;;;;;;1.90;1.48;;;;;;;31.32;32.51;99997.44;10147336;29;20406;-78
2022/06/25 14:18:11;;;;;;;1.52;1.42;;;;;;;31.39;30.83;99974.13;10135682;29;20052;-80
2022/06/25 14:23:15;;;;;;;3.90;1.80;;;;;;;31.66;30.55;99983.09;10147328;29;20056;-79
2022/06/25 14:28:18;;;;;;;1.40;1.30;;;;;;;30.66;31.33;99980.41;10150529;29;20778;-79
2022/06/25 14:33:21;;;;;;;2.70;1.60;;;;;;;29.25;33.28;99974.91;10148245;29;21232;-79
2022/06/25 14:43:45;;;;;;;3.40;1.80;;;;;;;28.76;34.65;99974.78;10147482;29;20139;-80
2022/06/25 14:48:48;;;;;;;6.13;1.65;;;;;;;28.54;35.18;99973.91;10152832;29;20079;-79
2022/06/25 14:53:52;;;;;;;2.83;1.55;;;;;;;28.41;37.22;99967.59;10128021;29;20052;-79
2022/06/25 14:58:55;;;;;;;2.25;1.65;;;;;;;28.34;37.30;99969.72;10149609;29;20047;-78
2022/06/25 15:03:58;;;;;;;4.60;2.13;;;;;;;28.28;37.53;99973.50;10154879;29;20593;-78
2022/06/25 15:09:02;;;;;;;1.73;1.40;;;;;;;29.41;35.17;99970.38;10153235;29;20541;-79
2022/06/25 15:14:05;;;;;;;3.78;1.30;;;;;;;30.50;33.26;99961.97;10160034;29;20052;-79
2022/06/25 15:19:07;;;;;;;2.58;1.70;;;;;;;29.95;33.93;99959.34;10164468;29;20056;-80
2022/06/25 15:24:11;;;;;;;2.88;1.73;;;;;;;28.97;35.19;99955.72;10150780;29;20073;-79
2022/06/25 15:29:14;;;;;;;1.77;1.50;;;;;;;28.55;35.71;99957.09;10160093;29;20055;-79
2022/06/25 15:34:17;;;;;;;6.50;1.80;;;;;;;28.17;36.27;99955.94;10154880;29;20055;-79
2022/06/25 15:39:21;;;;;;;2.30;1.98;;;;;;;27.98;36.75;99951.75;10147202;29;20086;-80
2022/06/25 15:44:26;;;;;;;5.28;1.80;;;;;;;27.83;38.33;99953.09;10146925;29;20131;-81
2022/06/25 15:49:30;;;;;;;4.47;2.00;;;;;;;27.68;37.92;99946.50;10147976;29;20058;-80
2022/06/25 15:54:34;;;;;;;3.97;1.92;;;;;;;27.66;37.75;99943.97;10133943;29;20750;-80
2022/06/25 15:59:37;;;;;;;2.95;2.08;;;;;;;27.73;38.03;99938.28;10121079;29;20063;-79
2022/06/25 16:04:40;;;;;;;2.97;1.35;;;;;;;27.68;38.30;99933.53;10142272;29;20195;-80
2022/06/25 16:09:44;;;;;;;2.30;1.63;;;;;;;27.63;37.89;99938.97;10127172;29;20071;-81
2022/06/25 16:14:47;;;;;;;2.28;1.40;;;;;;;27.48;38.38;99930.38;10144138;29;20702;-81
2022/06/25 16:19:51;;;;;;;2.08;1.90;;;;;;;27.37;40.07;99934.84;10146978;29;20052;-81
2022/06/25 16:24:55;;;;;;;2.97;1.70;;;;;;;27.41;42.12;99930.56;10143555;29;20395;-81
2022/06/25 16:29:58;;;;;;;1.58;1.38;;;;;;;27.37;42.85;99927.44;10143493;29;20139;-81
2022/06/25 16:35:01;;;;;;;3.05;1.88;;;;;;;28.85;41.38;99928.19;10112570;29;20552;-81
2022/06/25 16:40:07;;;;;;;2.30;1.60;;;;;;;33.93;33.12;99921.06;10152879;29;20116;-81
2022/06/25 16:45:10;;;;;;;2.72;1.40;;;;;;;36.35;28.84;99920.41;10154387;29;20084;-80
2022/06/25 16:50:13;;;;;;;2.47;1.40;;;;;;;32.47;33.13;99916.72;10149405;29;20458;-80
2022/06/25 16:55:18;;;;;;;2.50;1.63;;;;;;;29.84;38.24;99916.06;10125251;29;20044;-79
2022/06/25 17:00:21;;;;;;;2.75;1.70;;;;;;;28.63;40.80;99920.75;10150640;29;20044;-80
2022/06/25 17:05:24;;;;;;;1.98;1.50;;;;;;;27.88;38.17;99923.94;10149476;29;20103;-80
2022/06/25 17:10:28;;;;;;;4.72;2.78;;;;;;;28.64;38.33;99922.41;10169315;29;20064;-80
2022/06/25 17:15:31;;;;;;;2.00;1.80;;;;;;;27.92;41.02;99925.09;10175560;29;20119;-80
2022/06/25 17:20:34;;;;;;;3.55;1.88;;;;;;;27.39;41.09;99928.00;10162702;29;20080;-82
2022/06/25 17:25:39;;;;;;;3.80;1.50;;;;;;;26.99;41.86;99936.31;10158079;29;20068;-81
2022/06/25 17:30:42;;;;;;;2.53;2.20;;;;;;;29.31;39.01;99929.59;10135410;29;20515;-81
2022/06/25 17:35:47;;;;;;;3.22;2.45;;;;;;;31.76;34.01;99924.84;10166320;29;21180;-82
2022/06/25 17:40:52;;;;;;;3.00;1.80;;;;;;;33.06;32.55;99929.91;10162127;29;20052;-80
2022/06/25 17:45:55;;;;;;;3.03;1.45;;;;;;;31.62;35.19;99931.97;10165908;29;20048;-81
2022/06/25 17:50:58;;;;;;;4.00;2.17;;;;;;;31.28;35.84;99935.25;10158572;29;20054;-77
2022/06/25 17:56:03;;;;;;;2.20;1.90;;;;;;;30.13;38.04;99927.66;10120487;29;20059;-79
2022/06/25 18:01:06;;;;;;;1.55;1.45;;;;;;;28.99;38.91;99928.63;10160934;29;20056;-79
2022/06/25 18:06:09;;;;;;;1.48;1.40;;;;;;;28.35;40.21;99940.19;10167704;29;20085;-77
2022/06/25 18:11:15;;;;;;;2.15;1.90;;;;;;;27.95;40.64;99942.00;10169188;29;20068;-79
2022/06/25 18:16:18;;;;;;;1.77;1.67;;;;;;;26.94;43.86;99928.78;10173213;29;20088;-79
2022/06/25 18:21:22;;;;;;;2.90;1.83;;;;;;;26.73;44.93;99940.41;10140977;29;20139;-78
2022/06/25 18:26:26;;;;;;;2.97;1.80;;;;;;;26.56;46.40;99937.56;10168732;29;20052;-79
2022/06/25 18:31:29;;;;;;;1.85;1.65;;;;;;;26.04;44.70;99940.16;10159963;29;20052;-79
2022/06/25 18:36:32;;;;;;;3.75;1.98;;;;;;;25.27;44.91;99945.50;10159238;29;20050;-77
2022/06/25 18:41:40;;;;;;;2.65;1.95;;;;;;;25.39;44.58;99941.72;10164815;29;20063;-79
2022/06/25 18:46:43;;;;;;;2.28;2.05;;;;;;;25.41;45.26;99936.00;10147496;29;20524;-79
2022/06/25 18:51:45;;;;;;;2.30;2.10;;;;;;;25.33;45.58;99934.41;10139488;29;20060;-79
2022/06/25 18:56:50;;;;;;;12.50;11.45;;;;;;;25.22;45.28;99939.84;10146574;29;20071;-79
2022/06/25 19:01:53;;;;;;;5.65;5.15;;;;;;;25.07;45.98;99948.53;10120921;29;20055;-79
2022/06/25 19:06:56;;;;;;;3.85;2.60;;;;;;;24.92;45.73;99952.44;10122890;29;20108;-78
2022/06/25 19:12:01;;;;;;;3.05;2.72;;;;;;;24.80;45.93;99957.03;10163511;29;20052;-78
2022/06/25 19:17:04;;;;;;;3.53;2.55;;;;;;;24.70;45.45;99960.28;10135861;29;20056;-77
2022/06/25 19:22:07;;;;;;;3.00;2.38;;;;;;;24.61;45.08;99960.84;10133923;29;20752;-77
2022/06/25 19:27:12;;;;;;;3.00;2.00;;;;;;;24.35;45.00;99965.47;10102176;29;20435;-78
2022/06/25 19:32:15;;;;;;;4.47;2.20;;;;;;;24.14;45.37;99968.63;10126374;29;20052;-77
2022/06/25 19:37:18;;;;;;;3.50;2.45;;;;;;;24.08;46.12;99979.44;10134709;29;20130;-77
2022/06/25 19:42:22;;;;;;;3.70;2.45;;;;;;;24.08;45.59;99975.88;10145765;29;20063;-76
2022/06/25 19:47:25;;;;;;;3.92;2.33;;;;;;;23.96;46.18;99972.97;10151708;29;20656;-78
2022/06/25 19:52:28;;;;;;;2.58;2.20;;;;;;;23.84;46.53;99983.00;10161121;29;20099;-78
2022/06/25 19:57:32;;;;;;;2.72;1.80;;;;;;;23.60;46.00;99981.84;10144474;29;20044;-78
2022/06/25 20:02:37;;;;;;;4.57;2.78;;;;;;;23.58;46.56;99987.53;10140007;29;20060;-78
2022/06/25 20:07:43;;;;;;;4.90;2.25;;;;;;;23.61;46.29;99987.13;10150354;29;20056;-77
2022/06/25 20:12:48;;;;;;;1.88;1.75;;;;;;;23.58;46.67;99992.19;10139250;29;20083;-78
2022/06/25 20:17:51;;;;;;;3.60;2.95;;;;;;;23.42;48.46;99994.38;10135184;29;20186;-77
2022/06/25 20:22:55;;;;;;;5.13;4.47;;;;;;;23.21;50.96;99992.78;10134156;29;20066;-76
2022/06/25 20:28:00;;;;;;;7.97;4.28;;;;;;;23.06;51.67;99994.06;10135620;29;20130;-78
2022/06/25 20:33:03;;;;;;;5.80;5.07;;;;;;;22.97;52.44;99985.25;10143881;29;20418;-78
2022/06/25 20:38:12;;;;;;;7.15;5.18;;;;;;;22.95;52.56;99993.66;10135611;29;20044;-78
2022/06/25 20:43:16;;;;;;;4.97;4.30;;;;;;;22.90;52.02;99996.25;10141233;29;20056;-79
2022/06/25 20:48:19;;;;;;;4.03;3.70;;;;;;;22.89;52.20;100007.41;10135180;29;20052;-79
2022/06/25 20:53:22;;;;;;;5.07;3.67;;;;;;;22.83;51.85;100003.63;10127136;29;20071;-78
2022/06/25 20:58:26;;;;;;;5.75;3.70;;;;;;;22.77;52.41;100007.22;10135685;29;20134;-77
2022/06/25 21:08:51;;;;;;;4.30;3.50;;;;;;;22.27;54.15;100007.66;10136173;29;20124;-78
2022/06/25 21:13:55;;;;;;;3.95;3.65;;;;;;;22.02;55.32;99998.38;10143518;29;20076;-78
2022/06/25 21:18:58;;;;;;;3.83;3.53;;;;;;;22.06;55.18;99992.28;10132450;29;20687;-78
2022/06/25 21:24:01;;;;;;;4.88;3.72;;;;;;;22.16;54.60;99997.34;10151799;29;20059;-78
2022/06/25 21:29:05;;;;;;;5.18;3.72;;;;;;;22.14;54.69;99984.94;10150198;29;20177;-78
2022/06/25 21:34:08;;;;;;;6.00;4.13;;;;;;;22.11;54.29;99986.19;10155142;29;21878;-78
2022/06/25 21:39:11;;;;;;;4.75;4.10;;;;;;;22.00;54.51;99981.34;10152928;29;20056;-78
2022/06/25 21:44:15;;;;;;;6.10;4.10;;;;;;;22.08;54.49;99984.72;10149502;29;20123;-78
2022/06/25 21:49:18;;;;;;;5.45;4.82;;;;;;;21.93;54.61;99988.69;10151288;29;20076;-79
2022/06/25 21:54:20;;;;;;;5.03;4.53;;;;;;;21.83;54.89;99994.56;10142358;29;20522;-77
2022/06/25 21:59:25;;;;;;;4.90;4.50;;;;;;;21.75;55.78;99984.69;10139734;29;20048;-76
2022/06/25 22:04:27;;;;;;;6.15;5.10;;;;;;;21.58;56.22;99988.78;10144059;29;20114;-78
2022/06/25 22:09:30;;;;;;;5.15;4.72;;;;;;;21.42;56.75;99996.34;10148003;29;20056;-78
2022/06/25 22:14:34;;;;;;;5.15;4.70;;;;;;;21.36;57.40;99993.56;10147530;29;20060;-78
2022/06/25 22:19:37;;;;;;;6.03;4.60;;;;;;;21.31;57.53;100007.00;10147204;29;20048;-79
2022/06/25 22:24:40;;;;;;;5.35;4.65;;;;;;;21.32;57.38;100001.34;10149276;29;20055;-78
2022/06/25 22:29:44;;;;;;;6.13;5.05;;;;;;;21.20;57.83;100000.22;10129223;29;20051;-78
2022/06/25 22:34:47;;;;;;;7.18;5.35;;;;;;;21.06;58.39;100004.78;10146168;29;20172;-78
2022/06/25 22:39:50;;;;;;;7.57;5.65;;;;;;;21.02;58.12;99998.84;10145979;29;20052;-78
2022/06/25 22:44:54;;;;;;;6.10;5.50;;;;;;;20.94;58.34;99993.56;10146284;29;20074;-77
2022/06/25 22:49:57;;;;;;;7.07;5.57;;;;;;;20.82;58.15;100005.25;10149905;29;21252;-78
2022/06/25 22:55:00;;;;;;;6.00;5.40;;;;;;;20.66;58.33;100003.69;10136090;29;20055;-78
2022/06/25 23:00:06;;;;;;;5.57;5.18;;;;;;;20.67;58.28;99999.91;10136543;29;20727;-77
2022/06/25 23:05:09;;;;;;;5.63;5.07;;;;;;;20.48;58.23;99998.72;10120367;29;20059;-77
2022/06/25 23:10:14;;;;;;;6.57;4.50;;;;;;;20.52;58.19;100009.03;10139691;29;20052;-79
2022/06/25 23:15:19;;;;;;;8.43;5.13;;;;;;;20.51;58.04;100006.50;10143987;29;21208;-78
2022/06/25 23:20:23;;;;;;;5.03;4.65;;;;;;;20.47;58.11;100013.41;10141602;29;20052;-78
2022/06/25 23:25:26;;;;;;;5.55;5.00;;;;;;;20.33;58.63;100007.84;10128633;29;20075;-78
2022/06/25 23:30:31;;;;;;;6.38;4.85;;;;;;;20.32;58.35;100008.91;10151720;29;20055;-78
2022/06/25 23:35:35;;;;;;;5.95;5.13;;;;;;;20.21;58.58;100005.81;10147339;29;20048;-78
2022/06/25 23:40:38;;;;;;;5.65;4.85;;;;;;;20.13;58.61;100009.53;10142954;29;20046;-77
2022/06/25 23:45:42;;;;;;;4.93;4.50;;;;;;;20.04;58.58;100010.69;10142895;29;20074;-78
2022/06/25 23:50:45;;;;;;;6.95;5.07;;;;;;;19.99;58.67;100015.88;10143465;29;20569;-78
2022/06/25 23:55:48;;;;;;;6.43;5.63;;;;;;;19.94;58.56;100015.63;10142352;29;20583;-77
